Time;durP1;ratioP1;P1;durP2;ratioP2;P2;SDS_P1;SDS_P2;PMS_P1;PMS_P2;Temp;Humidity;BMP_temperature;BMP_pressure;BME280_temperature;BME280_humidity;BME280_pressure;Samples;Min_cycle;Max_cycle;Signal;HPM_P1;HPM_P2
2021/01/25 00:00:17;;;;;;;1.40;1.30;;;;;;;7.12;31.10;98941.44;4948834;28;96941;-68
2021/01/25 00:02:44;;;;;;;3.55;1.58;;;;;;;7.12;31.86;98939.69;4923313;28;96626;-68
2021/01/25 00:05:11;;;;;;;3.83;1.20;;;;;;;7.13;31.66;98932.75;4928018;28;98530;-67
2021/01/25 00:07:37;;;;;;;1.35;1.25;;;;;;;7.10;31.69;98931.19;4941700;28;98803;-67
2021/01/25 00:10:05;;;;;;;1.38;1.30;;;;;;;7.10;31.63;98923.41;4947625;28;96643;-67
2021/01/25 00:12:32;;;;;;;1.88;1.40;;;;;;;7.10;32.27;98923.41;4943397;28;96639;-67
2021/01/25 00:14:58;;;;;;;1.50;1.40;;;;;;;6.95;31.41;98930.28;4948209;28;98661;-68
2021/01/25 00:17:24;;;;;;;2.85;2.15;;;;;;;6.78;31.00;98932.97;4948564;28;98435;-67
2021/01/25 00:19:51;;;;;;;1.63;1.52;;;;;;;6.47;32.37;98949.34;4950493;28;96818;-68
2021/01/25 00:22:17;;;;;;;1.73;1.63;;;;;;;6.33;33.06;98941.47;4950558;28;96763;-68
2021/01/25 00:24:44;;;;;;;1.77;1.67;;;;;;;5.94;32.24;98935.72;4948733;28;98779;-68
2021/01/25 00:27:10;;;;;;;2.20;1.85;;;;;;;6.25;33.29;98929.78;4950874;28;97696;-67
2021/01/25 00:29:37;;;;;;;2.33;1.70;;;;;;;6.37;33.81;98910.19;4951129;28;96661;-68
2021/01/25 00:32:06;;;;;;;2.10;1.90;;;;;;;6.11;36.41;98906.38;4950436;28;96658;-69
2021/01/25 00:34:32;;;;;;;1.90;1.77;;;;;;;6.15;35.51;98902.72;4945615;28;98524;-68
2021/01/25 00:36:59;;;;;;;4.38;2.47;;;;;;;6.16;33.83;98894.03;4940788;28;99212;-68
2021/01/25 00:39:25;;;;;;;2.60;2.20;;;;;;;6.12;35.80;98884.78;4941775;28;99086;-69
2021/01/25 00:41:51;;;;;;;2.67;2.47;;;;;;;6.21;34.67;98881.69;4941666;28;98210;-69
2021/01/25 00:44:18;;;;;;;2.60;2.33;;;;;;;6.16;34.74;98868.16;4940670;28;99032;-69
2021/01/25 00:46:44;;;;;;;3.33;2.03;;;;;;;6.15;36.64;98869.09;4942942;28;99383;-68
2021/01/25 00:49:11;;;;;;;3.50;1.60;;;;;;;6.08;37.88;98877.28;4943570;28;97118;-68
2021/01/25 00:51:37;;;;;;;2.30;1.85;;;;;;;6.14;37.52;98879.53;4945315;28;100274;-68
2021/01/25 00:54:04;;;;;;;2.58;2.13;;;;;;;6.15;37.28;98887.22;4945283;28;98100;-68
2021/01/25 00:56:30;;;;;;;3.72;2.63;;;;;;;6.12;38.17;98889.13;4943051;28;98438;-67
2021/01/25 00:58:57;;;;;;;2.47;2.22;;;;;;;6.08;38.17;98885.88;4933166;28;97019;-69
2021/01/25 01:01:24;;;;;;;3.60;3.30;;;;;;;6.14;38.16;98882.97;4945917;28;97406;-69
2021/01/25 01:03:50;;;;;;;4.20;2.88;;;;;;;6.12;38.63;98876.19;4945039;28;98540;-68
2021/01/25 01:06:16;;;;;;;3.90;2.33;;;;;;;6.12;38.83;98871.84;4953068;28;98489;-68
2021/01/25 01:08:43;;;;;;;3.92;2.75;;;;;;;6.17;38.98;98874.19;4951404;28;97010;-68
2021/01/25 01:11:10;;;;;;;3.30;2.42;;;;;;;5.84;39.37;98869.03;4954285;28;96562;-69
2021/01/25 01:13:37;;;;;;;2.67;2.22;;;;;;;5.41;39.70;98877.22;4935889;28;98538;-69
2021/01/25 01:16:04;;;;;;;2.72;2.53;;;;;;;5.66;38.62;98884.59;4953870;28;98616;-69
2021/01/25 01:18:30;;;;;;;2.33;2.13;;;;;;;5.79;38.04;98875.25;4937295;28;96422;-68
2021/01/25 01:20:57;;;;;;;3.17;2.05;;;;;;;5.68;40.13;98877.56;4953775;28;97322;-69
2021/01/25 01:23:23;;;;;;;3.83;3.40;;;;;;;5.74;38.54;98892.75;4953780;28;98469;-69
2021/01/25 01:25:50;;;;;;;3.00;2.33;;;;;;;5.83;39.11;98895.81;4949528;28;98555;-68
2021/01/25 01:28:16;;;;;;;4.00;2.97;;;;;;;5.92;37.60;98890.19;4946037;28;97926;-69
2021/01/25 01:30:42;;;;;;;4.35;2.97;;;;;;;5.88;37.03;98870.53;4947607;28;97417;-69
2021/01/25 01:33:09;;;;;;;3.53;3.22;;;;;;;5.65;41.56;98880.34;4946029;28;98512;-69
2021/01/25 01:35:35;;;;;;;4.72;3.50;;;;;;;5.58;40.88;98889.28;4943671;28;98600;-68
2021/01/25 01:38:05;;;;;;;4.70;3.00;;;;;;;5.62;38.94;98875.31;4940426;28;98296;-67
2021/01/25 01:40:31;;;;;;;5.05;2.47;;;;;;;5.47;39.89;98863.16;4949631;28;96698;-66
2021/01/25 01:42:58;;;;;;;2.50;2.30;;;;;;;4.97;40.77;98869.13;4940663;28;100961;-67
2021/01/25 01:45:24;;;;;;;6.20;3.25;;;;;;;4.93;42.45;98872.75;4947620;28;98709;-67
2021/01/25 01:47:51;;;;;;;3.58;2.65;;;;;;;5.03;43.08;98876.56;4951480;28;96969;-67
2021/01/25 01:50:17;;;;;;;4.53;3.50;;;;;;;5.19;42.14;98854.22;4935171;28;97139;-66
2021/01/25 01:52:43;;;;;;;5.65;3.83;;;;;;;5.24;41.98;98841.09;4931524;28;98489;-66
2021/01/25 01:55:10;;;;;;;2.15;2.00;;;;;;;5.06;43.23;98849.75;4946282;28;98397;-67
2021/01/25 01:57:36;;;;;;;3.65;2.83;;;;;;;5.16;43.44;98822.53;4947413;28;97959;-66
2021/01/25 02:00:07;;;;;;;3.22;2.65;;;;;;;5.24;42.85;98835.91;4932291;28;96576;-66
2021/01/25 02:02:40;;;;;;;2.63;2.25;;;;;;;5.17;43.44;98850.91;4945700;28;98646;-66
2021/01/25 02:05:07;;;;;;;7.00;2.97;;;;;;;5.14;43.92;98835.53;4943106;28;98674;-67
2021/01/25 02:07:34;;;;;;;3.70;3.20;;;;;;;4.89;46.36;98842.81;4941007;28;97319;-66
2021/01/25 02:10:01;;;;;;;3.80;2.35;;;;;;;4.97;45.22;98846.72;4928662;28;97863;-67
2021/01/25 02:12:27;;;;;;;3.65;2.85;;;;;;;5.07;43.47;98792.88;4926069;28;99423;-67
2021/01/25 02:14:54;;;;;;;3.10;2.22;;;;;;;5.26;42.70;98808.25;4930522;28;97640;-67
2021/01/25 02:17:20;;;;;;;2.42;2.20;;;;;;;5.26;42.97;98816.00;4926583;28;97395;-67
2021/01/25 02:20:04;;;;;;;2.70;2.50;;;;;;;5.19;43.69;98828.41;4926636;28;97254;-67
2021/01/25 02:22:38;;;;;;;2.60;2.28;;;;;;;4.86;45.05;98819.75;4926930;28;98856;-67
2021/01/25 02:25:37;;;;;;;3.35;2.10;;;;;;;4.83;46.59;98810.41;4939034;28;98701;-67
2021/01/25 02:28:05;;;;;;;2.80;2.50;;;;;;;4.94;46.09;98791.78;4942409;28;96637;-67
2021/01/25 02:30:31;;;;;;;2.50;2.10;;;;;;;4.99;45.62;98789.81;4913685;28;97936;-66
2021/01/25 02:32:57;;;;;;;4.03;2.20;;;;;;;5.10;44.78;98776.34;4927918;28;97465;-67
2021/01/25 02:35:24;;;;;;;3.78;2.70;;;;;;;4.98;46.26;98791.56;4943285;28;98233;-67
2021/01/25 02:37:52;;;;;;;4.05;2.38;;;;;;;5.07;45.54;98787.69;4912374;28;97413;-68
2021/01/25 02:40:20;;;;;;;2.80;2.20;;;;;;;4.86;46.43;98794.78;4927430;28;98090;-68
2021/01/25 02:42:46;;;;;;;4.70;2.20;;;;;;;4.88;46.39;98797.28;4924309;28;98510;-67
2021/01/25 02:45:15;;;;;;;2.45;2.05;;;;;;;4.96;46.20;98808.91;4937503;28;98613;-67
2021/01/25 02:47:41;;;;;;;2.70;2.20;;;;;;;4.38;47.88;98818.63;4913752;28;96938;-68
2021/01/25 02:50:08;;;;;;;2.10;1.90;;;;;;;4.44;48.24;98803.69;4898621;28;97339;-67
2021/01/25 02:52:35;;;;;;;2.33;2.08;;;;;;;4.58;46.91;98823.69;4933661;28;98649;-67
2021/01/25 02:55:02;;;;;;;3.03;2.15;;;;;;;4.65;46.88;98830.22;4937036;28;98665;-67
2021/01/25 02:57:29;;;;;;;4.35;2.80;;;;;;;4.20;47.10;98813.41;4920778;28;96903;-67
2021/01/25 02:59:55;;;;;;;2.70;2.50;;;;;;;4.06;47.67;98818.41;4929255;28;96671;-67
2021/01/25 03:02:22;;;;;;;2.88;2.55;;;;;;;4.25;47.32;98825.28;4925096;28;97711;-68
2021/01/25 03:04:48;;;;;;;4.00;2.63;;;;;;;4.45;46.65;98836.31;4924548;28;98742;-67
2021/01/25 03:07:14;;;;;;;3.30;2.80;;;;;;;4.37;47.21;98832.44;4923717;28;96626;-68
2021/01/25 03:09:41;;;;;;;5.00;3.35;;;;;;;4.15;46.81;98820.53;4939600;28;97656;-67
2021/01/25 03:12:07;;;;;;;3.08;2.75;;;;;;;4.25;46.56;98820.94;4949591;28;98677;-67
2021/01/25 03:14:34;;;;;;;3.35;2.70;;;;;;;4.40;46.40;98814.22;4949264;28;98542;-67
2021/01/25 03:17:00;;;;;;;2.88;2.58;;;;;;;4.41;46.71;98810.72;4933531;28;96529;-67
2021/01/25 03:19:27;;;;;;;3.35;2.95;;;;;;;4.32;47.00;98809.44;4951990;28;96641;-67
2021/01/25 03:21:54;;;;;;;3.10;2.72;;;;;;;4.45;46.40;98823.41;4952347;28;98556;-68
2021/01/25 03:24:20;;;;;;;2.78;2.58;;;;;;;4.30;46.69;98828.47;4951864;28;98642;-67
2021/01/25 03:26:47;;;;;;;2.72;2.50;;;;;;;4.32;47.30;98830.09;4950209;28;100474;-66
2021/01/25 03:29:13;;;;;;;4.03;3.17;;;;;;;4.22;48.19;98823.69;4943189;28;98416;-65
2021/01/25 03:31:40;;;;;;;2.65;2.45;;;;;;;4.18;48.83;98817.81;4935283;28;97281;-66
2021/01/25 03:34:07;;;;;;;3.30;2.63;;;;;;;4.16;48.47;98822.22;4930598;28;97380;-65
2021/01/25 03:36:34;;;;;;;4.90;3.05;;;;;;;4.13;48.57;98818.94;4931250;28;97012;-65
2021/01/25 03:39:00;;;;;;;2.15;2.05;;;;;;;4.43;47.58;98816.69;4932775;28;97254;-66
2021/01/25 03:41:26;;;;;;;3.15;2.33;;;;;;;4.36;47.28;98823.84;4931050;28;98390;-66
2021/01/25 03:43:53;;;;;;;2.58;2.38;;;;;;;4.36;47.48;98834.16;4939941;28;98510;-66
2021/01/25 03:46:19;;;;;;;3.22;2.97;;;;;;;4.43;46.87;98848.47;4943132;28;97448;-66
2021/01/25 03:48:46;;;;;;;3.83;2.75;;;;;;;4.43;47.63;98843.31;4947810;28;96603;-65
2021/01/25 03:51:14;;;;;;;2.30;2.10;;;;;;;4.56;46.83;98825.50;4949898;28;97628;-66
2021/01/25 03:53:41;;;;;;;2.72;2.15;;;;;;;4.67;45.98;98825.81;4945352;28;98867;-66
2021/01/25 03:56:07;;;;;;;2.30;2.10;;;;;;;4.67;46.02;98828.38;4942912;28;100602;-66
2021/01/25 03:58:33;;;;;;;2.38;2.17;;;;;;;4.59;45.90;98829.69;4938119;28;97909;-66
2021/01/25 04:01:00;;;;;;;2.65;2.45;;;;;;;4.60;45.18;98815.88;4941042;28;98602;-66
2021/01/25 04:03:26;;;;;;;3.72;3.17;;;;;;;4.58;44.74;98812.50;4937979;28;98610;-66
2021/01/25 04:05:53;;;;;;;3.75;3.45;;;;;;;4.55;44.54;98810.09;4925708;28;96806;-67
2021/01/25 04:08:19;;;;;;;3.00;2.70;;;;;;;4.69;43.76;98808.50;4931762;28;97554;-67
2021/01/25 04:10:45;;;;;;;2.30;2.10;;;;;;;4.73;44.25;98810.00;4949939;28;98571;-68
2021/01/25 04:13:12;;;;;;;3.13;2.75;;;;;;;4.89;43.20;98815.25;4949714;28;98891;-69
2021/01/25 04:15:38;;;;;;;4.03;2.53;;;;;;;4.88;43.77;98808.44;4946096;28;96752;-68
2021/01/25 04:18:05;;;;;;;4.38;3.58;;;;;;;4.83;44.08;98800.06;4942262;28;96722;-68
2021/01/25 04:20:31;;;;;;;5.75;3.65;;;;;;;4.70;43.97;98805.00;4932359;28;98915;-67
2021/01/25 04:22:58;;;;;;;3.10;2.70;;;;;;;4.77;43.58;98809.88;4933683;28;98673;-68
2021/01/25 04:25:25;;;;;;;5.20;3.95;;;;;;;4.83;44.08;98810.41;4919450;28;96550;-67
2021/01/25 04:27:51;;;;;;;4.65;3.33;;;;;;;4.93;43.85;98813.38;4944181;28;96704;-68
2021/01/25 04:30:18;;;;;;;5.35;2.90;;;;;;;4.99;43.63;98810.47;4945845;28;98482;-68
2021/01/25 04:32:44;;;;;;;5.05;2.80;;;;;;;4.96;42.94;98806.31;4955036;28;98657;-67
2021/01/25 04:35:12;;;;;;;3.20;2.75;;;;;;;5.00;43.33;98804.38;4952120;28;97949;-68
2021/01/25 04:37:39;;;;;;;4.15;2.45;;;;;;;4.74;43.39;98810.88;4946043;28;97448;-67
2021/01/25 04:40:06;;;;;;;4.38;3.20;;;;;;;4.77;44.05;98810.72;4946704;28;98427;-67
2021/01/25 04:42:33;;;;;;;3.63;3.13;;;;;;;4.85;45.08;98803.44;4946544;28;98524;-67
2021/01/25 04:45:00;;;;;;;4.45;3.00;;;;;;;4.90;44.76;98801.47;4929400;28;96599;-67
2021/01/25 04:47:27;;;;;;;4.50;3.17;;;;;;;4.84;45.80;98798.31;4946532;28;98546;-67
2021/01/25 04:49:53;;;;;;;3.28;2.53;;;;;;;4.89;45.78;98798.94;4916115;28;98701;-67
2021/01/25 04:52:20;;;;;;;2.92;2.67;;;;;;;4.85;46.21;98802.59;4929146;28;98603;-67
2021/01/25 04:54:46;;;;;;;3.10;2.80;;;;;;;4.71;47.19;98804.09;4945675;28;96763;-68
2021/01/25 04:57:16;;;;;;;3.25;2.80;;;;;;;4.69;47.03;98805.09;4948098;28;96893;-68
2021/01/25 04:59:43;;;;;;;2.90;2.70;;;;;;;4.79;46.13;98798.53;4944198;28;98424;-68
2021/01/25 05:02:10;;;;;;;4.93;3.13;;;;;;;4.82;45.87;98807.91;4946615;28;98537;-67
2021/01/25 05:04:37;;;;;;;4.40;3.90;;;;;;;4.71;46.46;98806.69;4947932;28;97473;-67
2021/01/25 05:07:04;;;;;;;3.65;3.35;;;;;;;4.63;48.03;98805.38;4944577;28;97573;-68
2021/01/25 05:09:30;;;;;;;7.03;4.78;;;;;;;4.64;48.45;98789.84;4947799;28;98525;-67
2021/01/25 05:11:58;;;;;;;6.85;4.47;;;;;;;4.65;47.88;98796.66;4946454;28;98505;-68
2021/01/25 05:14:24;;;;;;;8.10;4.65;;;;;;;4.59;48.53;98806.47;4944707;28;96743;-67
2021/01/25 05:16:51;;;;;;;6.03;4.75;;;;;;;4.70;48.09;98804.19;4947089;28;97642;-67
2021/01/25 05:19:18;;;;;;;7.88;4.45;;;;;;;4.77;48.03;98776.31;4929581;28;98878;-67
2021/01/25 05:21:46;;;;;;;3.47;3.13;;;;;;;4.67;47.52;98781.09;4950680;28;99179;-67
2021/01/25 05:24:12;;;;;;;5.40;4.15;;;;;;;4.75;48.16;98798.81;4930516;28;96853;-68
2021/01/25 05:26:59;;;;;;;4.35;3.75;;;;;;;4.86;46.94;98797.34;4953465;28;96767;-67
2021/01/25 05:29:28;;;;;;;4.47;2.78;;;;;;;4.88;46.45;98786.94;4953934;28;99231;-66
2021/01/25 05:31:55;;;;;;;4.07;2.92;;;;;;;4.88;46.43;98792.94;4956266;28;98810;-65
2021/01/25 05:34:22;;;;;;;5.22;3.00;;;;;;;4.94;45.77;98786.63;4954796;28;96953;-66
2021/01/25 05:36:49;;;;;;;3.90;3.60;;;;;;;4.75;46.67;98781.56;4952833;28;96666;-66
2021/01/25 05:39:16;;;;;;;4.53;3.40;;;;;;;4.87;45.57;98787.84;4953642;28;97661;-66
2021/01/25 05:41:55;;;;;;;4.20;3.25;;;;;;;4.98;45.71;98790.72;4952562;28;98808;-67
2021/01/25 05:44:22;;;;;;;3.95;3.40;;;;;;;4.90;45.53;98790.28;4950045;28;96449;-67
2021/01/25 05:46:48;;;;;;;3.22;2.90;;;;;;;4.88;45.63;98811.00;4953090;28;97070;-67
2021/01/25 05:49:27;;;;;;;3.40;3.10;;;;;;;4.82;46.09;98800.16;4952684;28;98707;-67
2021/01/25 05:51:54;;;;;;;3.55;3.25;;;;;;;4.77;47.40;98799.53;4947433;28;98636;-67
2021/01/25 05:54:23;;;;;;;3.97;3.60;;;;;;;4.80;46.86;98796.81;4953290;28;96887;-67
2021/01/25 05:56:50;;;;;;;3.85;2.90;;;;;;;4.73;47.35;98791.94;4919647;28;97095;-64
2021/01/25 05:59:16;;;;;;;3.95;3.50;;;;;;;4.64;48.22;98800.16;4952535;28;98497;-66
2021/01/25 06:01:43;;;;;;;4.35;3.22;;;;;;;4.68;48.35;98803.41;4952213;28;98404;-67
2021/01/25 06:04:21;;;;;;;3.65;3.20;;;;;;;4.76;47.64;98808.22;4942353;28;97065;-66
2021/01/25 06:07:07;;;;;;;4.03;3.63;;;;;;;4.83;46.87;98814.72;4929665;28;97423;-68
2021/01/25 06:09:40;;;;;;;5.00;3.80;;;;;;;4.55;48.18;98805.75;4947385;28;98499;-67
2021/01/25 06:12:07;;;;;;;5.28;4.45;;;;;;;4.58;48.13;98800.47;4913939;28;98499;-67
2021/01/25 06:14:43;;;;;;;4.35;3.60;;;;;;;4.77;46.54;98794.38;4918981;28;96943;-69
2021/01/25 06:17:11;;;;;;;7.88;3.70;;;;;;;4.76;47.49;98793.56;4946643;28;97129;-70
2021/01/25 06:19:37;;;;;;;6.45;4.35;;;;;;;4.84;48.06;98790.56;4916144;28;98608;-66
2021/01/25 06:22:04;;;;;;;4.97;3.95;;;;;;;4.89;46.95;98796.34;4932311;28;98431;-67
2021/01/25 06:24:30;;;;;;;4.45;4.05;;;;;;;4.70;48.40;98788.69;4915952;28;96679;-66
2021/01/25 06:27:00;;;;;;;5.85;4.82;;;;;;;4.75;47.68;98791.06;4916383;28;97735;-68
2021/01/25 06:29:26;;;;;;;4.78;4.28;;;;;;;4.55;47.58;98810.91;4948338;28;98757;-67
2021/01/25 06:31:56;;;;;;;6.45;5.03;;;;;;;4.55;46.58;98807.50;4947041;28;97618;-67
2021/01/25 06:34:23;;;;;;;8.02;6.10;;;;;;;4.40;47.34;98803.91;4949543;28;96593;-68
2021/01/25 06:36:50;;;;;;;8.27;6.90;;;;;;;4.43;48.59;98811.50;4933422;28;96746;-68
2021/01/25 06:39:27;;;;;;;6.45;5.25;;;;;;;4.52;49.04;98815.38;4946143;28;98702;-66
2021/01/25 06:42:02;;;;;;;6.60;5.38;;;;;;;4.47;47.06;98813.00;4927019;28;98707;-71
2021/01/25 06:44:30;;;;;;;9.57;5.22;;;;;;;4.55;48.04;98821.25;4951015;28;96595;-73
2021/01/25 06:46:57;;;;;;;5.60;5.10;;;;;;;4.55;48.51;98820.41;4949020;28;97242;-73
2021/01/25 06:49:24;;;;;;;14.07;5.90;;;;;;;4.32;47.30;98826.66;4948316;28;98691;-76
2021/01/25 06:51:52;;;;;;;10.27;8.48;;;;;;;4.46;46.14;98816.50;4952131;28;98524;-77
2021/01/25 06:54:23;;;;;;;7.82;7.03;;;;;;;4.54;46.26;98824.75;4944956;28;96874;-74
2021/01/25 06:56:59;;;;;;;8.77;7.30;;;;;;;4.44;47.39;98829.50;4950720;28;97347;-76
2021/01/25 06:59:32;;;;;;;7.25;6.53;;;;;;;4.46;46.42;98832.00;4949610;28;99081;-72
2021/01/25 07:01:59;;;;;;;9.93;6.47;;;;;;;4.50;46.59;98833.53;4949366;28;99812;-75
2021/01/25 07:04:29;;;;;;;9.10;6.97;;;;;;;4.44;47.79;98834.66;4955385;28;97256;-74
2021/01/25 07:06:55;;;;;;;9.30;7.03;;;;;;;4.41;49.52;98833.97;4950292;28;96738;-74
2021/01/25 07:09:29;;;;;;;8.15;7.15;;;;;;;4.28;49.79;98840.63;4945547;28;98649;-75
2021/01/25 07:11:57;;;;;;;10.45;7.40;;;;;;;4.32;51.13;98844.72;4942871;28;98474;-75
2021/01/25 07:14:26;;;;;;;10.45;6.50;;;;;;;4.29;50.77;98837.13;4946695;28;96521;-75
2021/01/25 07:16:53;;;;;;;9.13;7.20;;;;;;;4.25;51.44;98838.16;4946657;28;96687;-72
2021/01/25 07:19:21;;;;;;;12.60;7.55;;;;;;;4.28;51.52;98845.78;4947841;28;98692;-74
2021/01/25 07:21:48;;;;;;;11.93;7.28;;;;;;;4.34;50.09;98848.06;4948630;28;98982;-74
2021/01/25 07:24:21;;;;;;;9.68;8.68;;;;;;;4.23;49.68;98845.97;4948989;28;96505;-73
2021/01/25 07:26:55;;;;;;;8.00;7.07;;;;;;;4.38;51.18;98854.75;4932947;28;96719;-73
2021/01/25 07:29:23;;;;;;;10.82;8.40;;;;;;;4.65;50.68;98863.78;4951995;28;98449;-73
2021/01/25 07:31:50;;;;;;;11.18;7.90;;;;;;;4.64;51.22;98864.69;4945389;28;98423;-71
2021/01/25 07:34:17;;;;;;;13.75;8.00;;;;;;;4.86;50.21;98863.66;4945507;28;96587;-73
2021/01/25 07:36:43;;;;;;;10.73;8.82;;;;;;;5.14;49.51;98861.38;4951221;28;96668;-71
2021/01/25 07:39:11;;;;;;;16.58;7.95;;;;;;;5.13;49.50;98864.03;4944756;28;98549;-72
2021/01/25 07:41:38;;;;;;;14.98;8.68;;;;;;;5.10;49.34;98870.19;4948488;28;98438;-71
2021/01/25 07:44:06;;;;;;;10.73;9.23;;;;;;;5.10;49.40;98870.19;4947587;28;96549;-71
2021/01/25 07:46:32;;;;;;;9.18;7.38;;;;;;;5.16;49.41;98864.69;4950138;28;96602;-71
2021/01/25 07:48:59;;;;;;;10.15;8.45;;;;;;;4.99;49.79;98872.47;4950360;28;98545;-71
2021/01/25 07:51:29;;;;;;;9.15;8.07;;;;;;;4.97;50.33;98869.97;4945367;28;98839;-71
2021/01/25 07:53:56;;;;;;;13.60;9.60;;;;;;;4.91;50.56;98869.44;4945743;28;96751;-71
2021/01/25 07:56:24;;;;;;;14.20;9.30;;;;;;;4.99;49.89;98872.47;4941371;28;96817;-71
2021/01/25 07:59:02;;;;;;;11.95;8.77;;;;;;;4.98;48.22;98873.38;4933234;28;98566;-72
2021/01/25 08:01:53;;;;;;;12.82;9.57;;;;;;;4.88;48.97;98885.06;4927941;28;98415;-71
2021/01/25 08:04:22;;;;;;;18.23;11.07;;;;;;;4.98;48.42;98891.44;4945970;28;96795;-71
2021/01/25 08:06:48;;;;;;;13.98;9.95;;;;;;;5.10;47.61;98893.44;4932386;28;97471;-72
2021/01/25 08:09:18;;;;;;;11.50;8.60;;;;;;;5.05;47.73;98900.56;4931557;28;97628;-72
2021/01/25 08:11:45;;;;;;;10.27;9.02;;;;;;;4.95;48.33;98907.09;4951275;28;98583;-71
2021/01/25 08:14:45;;;;;;;16.75;8.85;;;;;;;4.99;47.65;98918.94;4920425;28;98009;-71
2021/01/25 08:17:22;;;;;;;13.27;9.25;;;;;;;4.86;47.79;98923.03;4917724;28;97641;-71
2021/01/25 08:19:58;;;;;;;13.43;8.35;;;;;;;4.99;47.93;98922.34;4926957;28;99928;-71
2021/01/25 08:22:48;;;;;;;13.07;8.23;;;;;;;4.94;48.35;98924.31;4909970;28;98839;-71
2021/01/25 08:25:20;;;;;;;11.65;8.20;;;;;;;5.11;48.45;98926.09;4929530;28;97231;-72
2021/01/25 08:28:02;;;;;;;12.77;9.07;;;;;;;5.03;48.39;98929.97;4911180;28;97595;-71
2021/01/25 08:30:47;;;;;;;14.93;7.75;;;;;;;5.16;47.98;98937.03;4941166;28;98246;-72
2021/01/25 08:33:31;;;;;;;13.10;8.68;;;;;;;5.06;48.37;98940.13;4940586;28;99211;-70
2021/01/25 08:36:24;;;;;;;9.52;7.25;;;;;;;5.13;48.38;98942.38;4938900;28;98461;-71
2021/01/25 08:38:51;;;;;;;10.18;7.90;;;;;;;5.15;48.67;98950.88;4927128;28;97889;-71
2021/01/25 08:41:28;;;;;;;13.52;8.02;;;;;;;5.10;48.62;98952.00;4936598;28;100461;-72
2021/01/25 08:44:00;;;;;;;10.48;7.43;;;;;;;5.03;48.46;98946.31;4940204;28;98579;-72
2021/01/25 08:46:38;;;;;;;11.80;7.65;;;;;;;5.06;48.34;98951.34;4926261;28;99907;-72
2021/01/25 08:49:15;;;;;;;9.50;7.72;;;;;;;5.20;48.41;98954.06;4940664;28;100214;-72
2021/01/25 08:51:42;;;;;;;11.02;7.70;;;;;;;5.00;49.49;98956.75;4927820;28;98677;-71
2021/01/25 08:54:20;;;;;;;9.85;7.20;;;;;;;5.12;48.68;98950.19;4921918;28;97603;-71
2021/01/25 08:56:47;;;;;;;10.57;8.80;;;;;;;5.04;49.40;98942.81;4942994;28;96776;-71
2021/01/25 08:59:16;;;;;;;13.00;7.53;;;;;;;5.12;49.60;98955.38;4926206;28;97386;-71
2021/01/25 09:01:43;;;;;;;11.40;7.63;;;;;;;5.13;49.75;98954.44;4924800;28;100580;-72
2021/01/25 09:04:10;;;;;;;11.30;7.85;;;;;;;5.32;48.91;98972.47;4925768;28;98842;-72
2021/01/25 09:06:50;;;;;;;8.68;7.78;;;;;;;5.37;48.92;98967.91;4924494;28;98671;-72
2021/01/25 09:09:17;;;;;;;52.10;11.00;;;;;;;5.28;48.73;98963.22;4945014;28;96703;-72
2021/01/25 09:11:44;;;;;;;13.15;8.85;;;;;;;5.38;48.87;98972.16;4944814;28;98567;-72
2021/01/25 09:14:12;;;;;;;11.38;8.75;;;;;;;5.55;48.39;98969.59;4924076;28;98581;-72
2021/01/25 09:16:38;;;;;;;11.27;8.52;;;;;;;5.63;48.11;98970.03;4946580;28;97221;-72
2021/01/25 09:19:04;;;;;;;15.23;9.77;;;;;;;5.52;48.95;98974.91;4945097;28;96698;-72
2021/01/25 09:21:33;;;;;;;10.48;9.30;;;;;;;5.54;49.14;98986.03;4944936;28;98516;-72
2021/01/25 09:23:59;;;;;;;13.50;11.02;;;;;;;5.53;49.85;98982.59;4943346;28;98574;-72
2021/01/25 09:26:26;;;;;;;12.45;9.68;;;;;;;5.62;49.71;98989.06;4943179;28;97528;-72
2021/01/25 09:28:52;;;;;;;12.68;10.02;;;;;;;5.75;49.33;98995.31;4944115;28;96849;-72
2021/01/25 09:31:22;;;;;;;10.75;9.32;;;;;;;5.81;48.96;99007.09;4941588;28;98764;-72
2021/01/25 09:33:48;;;;;;;13.23;9.20;;;;;;;5.85;49.16;99007.75;4929228;28;98506;-72
2021/01/25 09:36:15;;;;;;;11.30;9.63;;;;;;;5.83;49.11;99015.59;4940544;28;98065;-73
2021/01/25 09:38:41;;;;;;;13.77;9.73;;;;;;;5.96;48.84;99011.50;4940009;28;100621;-72
2021/01/25 09:41:07;;;;;;;13.27;9.07;;;;;;;6.07;48.93;99016.13;4942372;28;99588;-72
2021/01/25 09:43:34;;;;;;;15.63;11.10;;;;;;;6.14;49.04;99008.91;4941249;28;98526;-72
2021/01/25 09:46:00;;;;;;;12.55;10.32;;;;;;;6.17;48.34;99013.91;4940872;28;96800;-71
2021/01/25 09:48:26;;;;;;;11.70;9.27;;;;;;;6.22;48.18;99007.56;4942722;28;97208;-71
2021/01/25 09:50:53;;;;;;;12.30;9.20;;;;;;;6.26;47.69;99011.69;4947081;28;98540;-71
2021/01/25 09:53:21;;;;;;;14.57;9.02;;;;;;;6.40;47.37;99015.31;4940997;28;98618;-71
2021/01/25 09:55:50;;;;;;;14.23;9.90;;;;;;;6.32;47.97;99007.09;4941219;28;96652;-71
2021/01/25 09:58:17;;;;;;;12.73;8.73;;;;;;;6.36;47.48;99018.97;4943164;28;97701;-71
2021/01/25 10:00:44;;;;;;;10.05;8.80;;;;;;;6.45;48.03;99021.94;4940491;28;97668;-71
2021/01/25 10:03:10;;;;;;;12.20;10.38;;;;;;;6.41;47.82;99027.34;4945371;28;98718;-71
2021/01/25 10:05:37;;;;;;;11.38;9.85;;;;;;;6.33;48.27;99039.81;4945405;28;97330;-71
2021/01/25 10:08:03;;;;;;;12.95;10.30;;;;;;;6.29;47.75;99045.19;4943275;28;99357;-71
2021/01/25 10:10:31;;;;;;;13.63;10.10;;;;;;;6.18;47.97;99050.06;4944104;28;98428;-71
2021/01/25 10:12:57;;;;;;;13.45;10.57;;;;;;;6.18;48.60;99046.63;4941845;28;100199;-71
2021/01/25 10:15:23;;;;;;;11.73;10.10;;;;;;;6.33;48.56;99039.81;4945155;28;100125;-71
2021/01/25 10:17:50;;;;;;;12.95;11.35;;;;;;;6.48;47.67;99039.03;4943063;28;99553;-72
2021/01/25 10:20:17;;;;;;;14.27;11.50;;;;;;;6.38;47.53;99037.84;4944152;28;98785;-71
2021/01/25 10:22:43;;;;;;;12.15;10.20;;;;;;;6.40;47.35;99038.63;4942766;28;98453;-71
2021/01/25 10:25:10;;;;;;;13.52;10.98;;;;;;;6.42;47.75;99042.78;4941427;28;98239;-72
2021/01/25 10:27:37;;;;;;;13.23;11.75;;;;;;;6.52;47.84;99056.09;4945488;28;97807;-71
2021/01/25 10:30:05;;;;;;;16.38;12.20;;;;;;;6.54;48.24;99064.59;4941368;28;98644;-71
2021/01/25 10:32:31;;;;;;;15.68;11.45;;;;;;;6.43;49.17;99072.91;4943556;28;98743;-71
2021/01/25 10:34:58;;;;;;;13.32;11.35;;;;;;;6.56;49.21;99080.91;4942034;28;97621;-71
2021/01/25 10:37:26;;;;;;;16.00;10.93;;;;;;;6.55;49.46;99082.66;4944001;28;97467;-72
2021/01/25 10:39:52;;;;;;;15.23;11.27;;;;;;;6.41;50.79;99084.28;4941758;28;98578;-72
2021/01/25 10:42:18;;;;;;;13.32;11.90;;;;;;;6.32;51.50;99089.91;4944378;28;98631;-72
2021/01/25 10:44:45;;;;;;;16.25;13.07;;;;;;;6.51;51.47;99088.91;4944870;28;98965;-72
2021/01/25 10:47:14;;;;;;;16.67;13.52;;;;;;;6.34;52.16;99095.84;4944621;28;97429;-71
2021/01/25 10:49:41;;;;;;;16.35;14.45;;;;;;;6.43;52.69;99090.22;4943221;28;98752;-71
2021/01/25 10:52:07;;;;;;;17.65;15.48;;;;;;;6.41;53.00;99086.88;4944661;28;98888;-71
2021/01/25 10:54:33;;;;;;;15.55;13.45;;;;;;;6.33;53.54;99096.75;4942407;28;96707;-71
2021/01/25 10:57:00;;;;;;;16.98;14.98;;;;;;;6.27;53.71;99087.56;4941480;28;97200;-72
2021/01/25 10:59:26;;;;;;;17.58;14.50;;;;;;;6.28;54.13;99095.28;4940499;28;98507;-71
2021/01/25 11:01:52;;;;;;;18.92;14.95;;;;;;;6.22;54.73;99090.38;4944592;28;100975;-71
2021/01/25 11:04:19;;;;;;;16.58;14.70;;;;;;;6.41;54.14;99095.47;4944585;28;97508;-71
2021/01/25 11:06:47;;;;;;;16.65;14.60;;;;;;;6.40;54.83;99111.94;4944024;28;99849;-71
2021/01/25 11:09:17;;;;;;;17.40;13.80;;;;;;;6.53;54.68;99125.06;4944133;28;98590;-72
2021/01/25 11:11:44;;;;;;;17.35;14.57;;;;;;;6.50;54.39;99117.47;4942757;28;99571;-71
2021/01/25 11:14:10;;;;;;;17.17;15.43;;;;;;;6.37;55.01;99124.19;4942885;28;97452;-71
2021/01/25 11:16:37;;;;;;;16.08;13.43;;;;;;;6.32;54.56;99113.22;4944740;28;97586;-72
2021/01/25 11:19:03;;;;;;;17.13;13.50;;;;;;;6.21;55.00;99112.00;4944205;28;98416;-71
2021/01/25 11:21:30;;;;;;;14.38;12.13;;;;;;;6.41;54.63;99110.16;4943775;28;98765;-71
2021/01/25 11:23:56;;;;;;;16.33;12.85;;;;;;;6.45;55.26;99106.53;4943234;28;97709;-71
2021/01/25 11:26:25;;;;;;;14.57;12.60;;;;;;;6.45;55.16;99101.34;4943788;28;96719;-72
2021/01/25 11:28:52;;;;;;;17.63;12.27;;;;;;;6.45;55.32;99115.13;4940481;28;98933;-70
2021/01/25 11:31:18;;;;;;;16.75;12.80;;;;;;;6.49;55.24;99118.38;4940557;28;98578;-71
2021/01/25 11:33:45;;;;;;;17.90;13.43;;;;;;;6.47;55.79;99117.63;4939018;28;96771;-71
2021/01/25 11:36:11;;;;;;;19.38;12.43;;;;;;;6.37;56.16;99108.66;4943013;28;97523;-70
2021/01/25 11:38:38;;;;;;;14.48;12.82;;;;;;;6.54;55.34;99100.84;4943118;28;98517;-68
2021/01/25 11:41:04;;;;;;;18.05;11.65;;;;;;;6.58;54.98;99097.19;4941097;28;98613;-69